Time;durP1;ratioP1;P1;durP2;ratioP2;P2;SDS_P1;SDS_P2;PMS_P1;PMS_P2;Temp;Humidity;BMP_temperature;BMP_pressure;BME280_temperature;BME280_humidity;BME280_pressure;Samples;Min_cycle;Max_cycle;Signal;HPM_P1;HPM_P2
2023/12/12 00:00:04;;;;;;;2.17;1.10;;;8.60;99.90;;;;;;4996159;28;20593;-69
2023/12/12 00:02:32;;;;;;;3.88;1.25;;;8.50;99.90;;;;;;4991038;28;20213;-69
2023/12/12 00:05:00;;;;;;;3.00;1.27;;;8.50;99.90;;;;;;4997945;28;20205;-69
2023/12/12 00:07:29;;;;;;;3.30;2.25;;;8.60;99.90;;;;;;4991818;28;20654;-69
2023/12/12 00:09:58;;;;;;;4.15;2.00;;;8.60;99.90;;;;;;4991442;28;20284;-69
2023/12/12 00:12:26;;;;;;;3.67;2.00;;;8.60;99.90;;;;;;4993174;28;20288;-69
2023/12/12 00:14:54;;;;;;;2.15;1.40;;;8.50;99.90;;;;;;5022371;28;20216;-69
2023/12/12 00:17:22;;;;;;;4.28;1.65;;;8.40;99.90;;;;;;5013765;28;20276;-69
2023/12/12 00:19:50;;;;;;;3.42;1.65;;;8.40;99.90;;;;;;4996764;28;20205;-70
2023/12/12 00:22:17;;;;;;;3.22;2.25;;;8.30;99.90;;;;;;5001674;28;20205;-69
2023/12/12 00:24:47;;;;;;;7.72;2.25;;;8.30;99.90;;;;;;4995645;28;20579;-69
2023/12/12 00:27:15;;;;;;;9.65;3.15;;;8.40;99.90;;;;;;4999084;28;20587;-69
2023/12/12 00:29:45;;;;;;;4.50;1.77;;;8.40;99.90;;;;;;4995045;28;20217;-69
2023/12/12 00:32:12;;;;;;;5.80;2.20;;;8.50;99.90;;;;;;4995072;28;20214;-69
2023/12/12 00:34:41;;;;;;;5.32;2.28;;;8.60;99.90;;;;;;4994907;28;20694;-69
2023/12/12 00:37:09;;;;;;;3.17;1.50;;;8.70;99.90;;;;;;4994752;28;20304;-69
2023/12/12 00:39:37;;;;;;;6.45;2.30;;;8.80;99.90;;;;;;4994619;28;20206;-69
2023/12/12 00:42:07;;;;;;;4.50;2.80;;;8.80;99.90;;;;;;5002231;28;20210;-69
2023/12/12 00:44:35;;;;;;;6.45;2.53;;;8.80;99.90;;;;;;5013235;28;20676;-69
2023/12/12 00:47:05;;;;;;;2.00;1.50;;;8.70;99.90;;;;;;5016148;28;20655;-69
2023/12/12 00:49:32;;;;;;;11.38;3.75;;;8.70;99.90;;;;;;4994292;28;20244;-69
2023/12/12 00:52:02;;;;;;;7.30;2.25;;;8.70;99.90;;;;;;4994735;28;20205;-68
2023/12/12 00:54:30;;;;;;;7.35;1.95;;;8.70;99.90;;;;;;4994470;28;20260;-68
2023/12/12 00:56:58;;;;;;;12.07;2.78;;;8.80;99.90;;;;;;4995483;28;20230;-68
2023/12/12 00:59:27;;;;;;;4.30;1.45;;;8.90;99.90;;;;;;4994169;28;20213;-68
2023/12/12 01:01:55;;;;;;;6.47;1.80;;;9.00;99.90;;;;;;4994733;28;20206;-68
2023/12/12 01:04:23;;;;;;;8.63;2.33;;;9.20;99.90;;;;;;4994412;28;20260;-68
2023/12/12 01:06:51;;;;;;;7.57;2.47;;;9.20;99.90;;;;;;4994055;28;20230;-68
2023/12/12 01:09:19;;;;;;;6.35;2.65;;;9.10;99.90;;;;;;4994315;28;20212;-68
2023/12/12 01:11:47;;;;;;;7.05;2.42;;;9.00;99.90;;;;;;4998779;28;20198;-68
2023/12/12 01:14:15;;;;;;;10.48;3.05;;;9.00;99.90;;;;;;5007013;28;20209;-68
2023/12/12 01:16:44;;;;;;;9.00;2.70;;;9.00;99.90;;;;;;5026816;28;20230;-68
2023/12/12 01:19:12;;;;;;;7.40;2.30;;;9.00;99.90;;;;;;4994647;28;20333;-68
2023/12/12 01:21:41;;;;;;;2.45;1.88;;;9.10;99.90;;;;;;5003553;28;20260;-68
2023/12/12 01:24:09;;;;;;;3.20;1.60;;;9.20;99.90;;;;;;4994334;28;20210;-67
2023/12/12 01:26:36;;;;;;;2.40;1.60;;;9.20;99.90;;;;;;4999800;28;20234;-68
2023/12/12 01:29:04;;;;;;;4.85;2.30;;;9.00;99.90;;;;;;4992931;28;20245;-68
2023/12/12 01:31:32;;;;;;;2.75;1.88;;;9.20;99.90;;;;;;4994060;28;20218;-68
2023/12/12 01:34:01;;;;;;;4.25;1.80;;;9.10;99.90;;;;;;4993966;28;20230;-68
2023/12/12 01:36:29;;;;;;;4.32;1.50;;;9.10;99.90;;;;;;4993517;28;20226;-68
2023/12/12 01:38:57;;;;;;;3.47;1.48;;;9.10;99.90;;;;;;4993937;28;20210;-68
2023/12/12 01:41:25;;;;;;;6.93;2.05;;;9.20;99.90;;;;;;4994290;28;20214;-67
2023/12/12 01:43:53;;;;;;;2.97;1.20;;;9.30;99.90;;;;;;5007609;28;20291;-67
2023/12/12 01:46:22;;;;;;;6.55;1.40;;;9.40;99.90;;;;;;5032754;28;20707;-68
2023/12/12 01:48:50;;;;;;;2.22;1.05;;;9.50;99.90;;;;;;5009277;28;20198;-68
2023/12/12 01:51:20;;;;;;;5.30;1.85;;;9.50;99.90;;;;;;4993759;28;20206;-68
2023/12/12 01:53:51;;;;;;;6.05;1.08;;;9.60;99.90;;;;;;4993577;28;20209;-68
2023/12/12 01:56:20;;;;;;;4.32;0.88;;;9.60;99.90;;;;;;4996757;28;20573;-67
2023/12/12 01:58:51;;;;;;;4.10;1.70;;;9.70;99.90;;;;;;4993260;28;20206;-68
2023/12/12 02:01:21;;;;;;;4.95;1.70;;;9.70;99.90;;;;;;4993628;28;20210;-68
2023/12/12 02:03:50;;;;;;;5.82;1.70;;;9.80;99.90;;;;;;4993305;28;20205;-68
2023/12/12 02:06:22;;;;;;;0.85;0.85;;;9.90;99.90;;;;;;4993185;28;20236;-68
2023/12/12 02:08:51;;;;;;;4.47;1.58;;;10.00;99.90;;;;;;5002812;28;20254;-69
2023/12/12 02:11:19;;;;;;;6.03;1.70;;;10.00;99.90;;;;;;4997804;28;20665;-68
2023/12/12 02:13:48;;;;;;;3.00;1.10;;;10.00;99.90;;;;;;5004672;28;20254;-69
2023/12/12 02:16:17;;;;;;;1.23;1.10;;;10.10;99.90;;;;;;5032299;28;20200;-69
2023/12/12 02:18:45;;;;;;;2.25;1.17;;;10.20;99.90;;;;;;4994750;28;20214;-69
2023/12/12 02:21:19;;;;;;;3.35;1.05;;;10.10;99.90;;;;;;5004204;28;20221;-69
2023/12/12 02:23:47;;;;;;;5.35;1.83;;;10.00;99.90;;;;;;5000924;28;20755;-68
2023/12/12 02:26:16;;;;;;;7.72;2.10;;;10.00;99.90;;;;;;4992718;28;20209;-69
2023/12/12 02:28:44;;;;;;;4.43;1.95;;;10.00;99.90;;;;;;4992689;28;20218;-69
2023/12/12 02:31:13;;;;;;;6.53;1.67;;;9.80;99.90;;;;;;4993546;28;20614;-69
2023/12/12 02:33:40;;;;;;;4.82;1.70;;;9.70;99.90;;;;;;4996906;28;20220;-69
2023/12/12 02:36:09;;;;;;;5.13;2.35;;;9.70;99.90;;;;;;4998352;28;20440;-70
2023/12/12 02:38:38;;;;;;;3.72;1.35;;;9.80;99.90;;;;;;4996916;28;20206;-69
2023/12/12 02:41:06;;;;;;;6.45;1.98;;;9.80;99.90;;;;;;4996333;28;20210;-69
2023/12/12 02:43:35;;;;;;;1.65;1.25;;;9.80;99.90;;;;;;5002485;28;20210;-69
2023/12/12 02:46:02;;;;;;;3.35;1.25;;;9.70;99.90;;;;;;5031798;28;20203;-69
2023/12/12 02:48:30;;;;;;;5.50;1.90;;;9.70;99.90;;;;;;4998651;28;20222;-68
2023/12/12 02:50:58;;;;;;;1.88;1.10;;;9.70;99.90;;;;;;4992677;28;20205;-69
2023/12/12 02:53:26;;;;;;;2.25;1.08;;;9.70;99.90;;;;;;4997278;28;20205;-69
2023/12/12 02:55:55;;;;;;;2.35;1.30;;;9.70;99.90;;;;;;4992388;28;20216;-70
2023/12/12 02:58:23;;;;;;;2.67;0.98;;;9.70;99.90;;;;;;4992305;28;20218;-69
2023/12/12 03:00:51;;;;;;;4.40;1.00;;;9.70;99.90;;;;;;4992245;28;20202;-69
2023/12/12 03:03:19;;;;;;;5.03;2.20;;;9.70;99.90;;;;;;5000584;28;20210;-69
2023/12/12 03:05:47;;;;;;;2.10;0.80;;;9.70;99.90;;;;;;4991993;28;20636;-69
2023/12/12 03:08:16;;;;;;;1.38;0.98;;;9.60;99.90;;;;;;4997423;28;20277;-70
2023/12/12 03:10:43;;;;;;;1.40;0.95;;;9.60;99.90;;;;;;4993649;28;20249;-70
2023/12/12 03:13:13;;;;;;;3.63;1.60;;;9.60;99.90;;;;;;4996083;28;20268;-70
2023/12/12 03:15:41;;;;;;;6.38;1.23;;;9.50;99.90;;;;;;5029437;28;20243;-70
2023/12/12 03:18:08;;;;;;;1.42;0.98;;;9.50;99.90;;;;;;5013348;28;20590;-70
2023/12/12 03:20:36;;;;;;;2.30;1.30;;;9.40;99.90;;;;;;5004192;28;20205;-70
2023/12/12 03:23:04;;;;;;;4.72;1.13;;;9.40;99.90;;;;;;4994242;28;20206;-70
2023/12/12 03:25:32;;;;;;;3.10;1.45;;;9.40;99.90;;;;;;4992190;28;20245;-70
2023/12/12 03:28:00;;;;;;;3.38;1.90;;;9.40;99.90;;;;;;4991805;28;20253;-70
2023/12/12 03:30:29;;;;;;;3.53;0.82;;;9.50;99.90;;;;;;4991770;28;20658;-69
2023/12/12 03:32:58;;;;;;;2.80;1.50;;;9.40;99.90;;;;;;4991571;28;20204;-69
2023/12/12 03:35:26;;;;;;;4.53;1.15;;;9.40;99.90;;;;;;4991870;28;20641;-69
2023/12/12 03:37:54;;;;;;;3.40;1.25;;;9.40;99.90;;;;;;4995596;28;20240;-69
2023/12/12 03:40:22;;;;;;;1.60;1.10;;;9.30;99.90;;;;;;4991416;28;20206;-69
2023/12/12 03:42:50;;;;;;;3.85;1.65;;;9.30;99.90;;;;;;4992262;28;20202;-68
2023/12/12 03:45:17;;;;;;;3.78;1.60;;;9.40;99.90;;;;;;5025178;28;20200;-69
2023/12/12 03:47:47;;;;;;;6.00;1.40;;;9.30;99.90;;;;;;5011115;28;20229;-68
2023/12/12 03:50:16;;;;;;;3.25;1.35;;;9.40;99.90;;;;;;4991851;28;20212;-69
2023/12/12 03:52:44;;;;;;;3.17;1.40;;;9.50;99.90;;;;;;4997340;28;20201;-69
2023/12/12 03:55:12;;;;;;;3.80;1.30;;;9.50;99.90;;;;;;4995265;28;20579;-68
2023/12/12 03:57:40;;;;;;;1.35;1.15;;;9.50;99.90;;;;;;4993851;28;20654;-69
2023/12/12 04:00:10;;;;;;;7.97;2.30;;;9.50;99.90;;;;;;4991283;28;20210;-68
2023/12/12 04:02:38;;;;;;;4.80;1.10;;;9.50;99.90;;;;;;4991322;28;20214;-68
2023/12/12 04:05:09;;;;;;;6.38;2.13;;;9.40;99.90;;;;;;4991506;28;20206;-68
2023/12/12 04:07:38;;;;;;;4.70;1.15;;;9.40;99.90;;;;;;4992237;28;20318;-67
2023/12/12 04:10:07;;;;;;;5.38;1.77;;;9.40;99.90;;;;;;4991373;28;20210;-68
2023/12/12 04:12:35;;;;;;;3.80;1.70;;;9.30;99.90;;;;;;4991176;28;20213;-69
2023/12/12 04:15:04;;;;;;;1.30;0.93;;;9.30;99.90;;;;;;5018376;28;20205;-68
2023/12/12 04:17:32;;;;;;;4.03;1.73;;;9.30;99.90;;;;;;5003408;28;20316;-68
2023/12/12 04:20:00;;;;;;;2.80;1.30;;;9.30;99.90;;;;;;4995041;28;20210;-68
2023/12/12 04:22:30;;;;;;;2.13;1.58;;;9.30;99.90;;;;;;5004428;28;20212;-68
2023/12/12 04:24:58;;;;;;;3.53;1.45;;;9.30;99.90;;;;;;4991233;28;20217;-69
2023/12/12 04:27:26;;;;;;;3.58;1.25;;;9.20;99.90;;;;;;4997735;28;20240;-68
2023/12/12 04:29:54;;;;;;;7.90;1.80;;;9.10;99.90;;;;;;4992025;28;20205;-69
2023/12/12 04:32:22;;;;;;;5.03;1.50;;;9.20;99.90;;;;;;4991234;28;20217;-69
2023/12/12 04:34:50;;;;;;;4.30;1.15;;;9.20;99.90;;;;;;4991570;28;20260;-69
2023/12/12 04:37:18;;;;;;;2.58;1.20;;;9.10;99.90;;;;;;4996697;28;20214;-68
2023/12/12 04:39:48;;;;;;;6.18;0.95;;;9.10;99.90;;;;;;4990585;28;20213;-69
2023/12/12 04:42:16;;;;;;;6.15;1.63;;;9.10;99.90;;;;;;4990912;28;20214;-68
2023/12/12 04:44:44;;;;;;;2.70;1.50;;;9.00;99.90;;;;;;5007484;28;20209;-67
2023/12/12 04:47:13;;;;;;;3.28;1.13;;;9.00;99.90;;;;;;5013342;28;20230;-69
2023/12/12 04:49:40;;;;;;;6.97;2.38;;;9.00;99.90;;;;;;4990573;28;20337;-69
2023/12/12 04:52:09;;;;;;;4.15;1.38;;;9.20;99.90;;;;;;4998846;28;20736;-69
2023/12/12 04:54:37;;;;;;;5.88;0.98;;;9.20;99.90;;;;;;4991087;28;20213;-69
2023/12/12 04:57:06;;;;;;;2.45;1.20;;;9.30;99.90;;;;;;4990621;28;20226;-68
2023/12/12 04:59:34;;;;;;;2.47;1.00;;;9.30;99.90;;;;;;4990906;28;20214;-68
2023/12/12 05:02:06;;;;;;;2.20;1.58;;;9.30;99.90;;;;;;4990706;28;20198;-68
2023/12/12 05:04:35;;;;;;;2.63;1.30;;;9.40;99.90;;;;;;4994909;28;20605;-68
2023/12/12 05:07:04;;;;;;;4.38;1.67;;;9.40;99.90;;;;;;5021780;22;21082;-75
2023/12/12 05:09:31;;;;;;;2.35;1.02;;;9.40;99.90;;;;;;5007233;28;20696;-74
2023/12/12 05:11:59;;;;;;;5.05;1.90;;;9.30;99.90;;;;;;5012596;28;20216;-76
2023/12/12 05:14:29;;;;;;;3.05;2.08;;;9.30;99.90;;;;;;5013987;28;20215;-76
2023/12/12 05:16:56;;;;;;;2.03;1.42;;;9.30;99.90;;;;;;4995678;28;20256;-75
2023/12/12 05:19:37;;;;;;;11.80;2.35;;;9.30;99.90;;;;;;5001690;28;20212;-73
2023/12/12 05:22:05;;;;;;;4.13;2.70;;;9.30;99.90;;;;;;5007722;28;20210;-77
2023/12/12 05:24:33;;;;;;;2.28;2.08;;;9.30;99.90;;;;;;5014063;28;20594;-74
2023/12/12 05:27:01;;;;;;;1.45;1.35;;;9.30;99.90;;;;;;5013484;28;20225;-74
2023/12/12 05:29:30;;;;;;;6.10;1.73;;;9.40;99.90;;;;;;5007768;28;20226;-74
2023/12/12 05:31:58;;;;;;;4.90;1.90;;;9.40;99.90;;;;;;5011927;28;20636;-75
2023/12/12 05:34:26;;;;;;;3.33;1.42;;;9.40;99.90;;;;;;5012632;28;20707;-75
2023/12/12 05:36:54;;;;;;;7.05;1.85;;;9.30;99.90;;;;;;5013230;28;20255;-75
2023/12/12 05:39:22;;;;;;;2.88;1.10;;;9.30;99.90;;;;;;5013347;28;20209;-74
2023/12/12 05:41:50;;;;;;;2.80;1.95;;;9.30;99.90;;;;;;5013176;28;20217;-75
2023/12/12 05:44:18;;;;;;;4.50;1.25;;;9.30;99.90;;;;;;5005283;28;20731;-75
2023/12/12 05:46:47;;;;;;;5.57;1.42;;;9.30;99.90;;;;;;5013238;28;20707;-74
2023/12/12 05:49:15;;;;;;;5.57;1.45;;;9.30;99.90;;;;;;5006407;28;20229;-74
2023/12/12 05:51:43;;;;;;;4.03;1.70;;;9.30;99.90;;;;;;5013251;28;20210;-74
2023/12/12 05:54:11;;;;;;;2.17;1.40;;;9.30;99.90;;;;;;5005388;28;20200;-74
2023/12/12 05:56:42;;;;;;;5.20;1.23;;;9.40;99.90;;;;;;5010858;28;20201;-75
2023/12/12 05:59:14;;;;;;;4.45;1.58;;;9.40;99.90;;;;;;4998208;28;20569;-76
2023/12/12 06:01:42;;;;;;;6.57;1.30;;;9.40;99.90;;;;;;5005708;28;20201;-75
2023/12/12 06:04:13;;;;;;;1.88;1.73;;;9.40;99.90;;;;;;5011440;28;20283;-75
2023/12/12 06:06:42;;;;;;;2.40;1.33;;;9.40;99.90;;;;;;5010613;28;20219;-76
2023/12/12 06:09:11;;;;;;;5.22;2.03;;;9.40;99.90;;;;;;5011739;28;20225;-76
2023/12/12 06:11:40;;;;;;;2.35;1.55;;;9.40;99.90;;;;;;5007191;28;20973;-75
2023/12/12 06:14:08;;;;;;;2.75;1.23;;;9.40;99.90;;;;;;5000756;28;20316;-75
2023/12/12 06:16:37;;;;;;;4.60;1.75;;;9.40;99.90;;;;;;5005135;28;20208;-70
2023/12/12 06:19:05;;;;;;;2.63;1.48;;;9.40;99.90;;;;;;4998819;28;20718;-73
2023/12/12 06:21:35;;;;;;;3.08;1.45;;;9.20;99.90;;;;;;4999669;28;20303;-70
2023/12/12 06:24:04;;;;;;;5.75;2.55;;;9.10;99.90;;;;;;4999927;28;20324;-70
2023/12/12 06:26:32;;;;;;;4.72;2.17;;;9.10;99.90;;;;;;4998484;28;20224;-71
2023/12/12 06:29:02;;;;;;;7.15;2.10;;;9.00;99.90;;;;;;4999986;28;20244;-69
2023/12/12 06:31:30;;;;;;;4.28;1.83;;;8.90;99.90;;;;;;4999592;28;21079;-68
2023/12/12 06:33:57;;;;;;;3.50;1.50;;;8.80;99.90;;;;;;4998990;28;20220;-70
2023/12/12 06:36:26;;;;;;;5.22;1.88;;;8.60;99.90;;;;;;4994280;28;20228;-71
2023/12/12 06:38:55;;;;;;;3.53;1.10;;;8.50;99.90;;;;;;4998961;28;20769;-71
2023/12/12 06:41:23;;;;;;;3.15;1.30;;;8.40;99.90;;;;;;4998502;28;20213;-71
2023/12/12 06:43:51;;;;;;;2.10;1.30;;;8.40;99.90;;;;;;4998128;28;20210;-70
2023/12/12 06:46:19;;;;;;;8.18;2.03;;;8.40;99.90;;;;;;4995934;28;20218;-72
2023/12/12 06:48:47;;;;;;;1.40;1.00;;;8.30;99.90;;;;;;4999346;28;20229;-70
2023/12/12 06:51:16;;;;;;;1.83;1.50;;;8.10;99.90;;;;;;4998867;28;20256;-71
2023/12/12 06:53:44;;;;;;;4.15;1.60;;;7.90;99.90;;;;;;5000396;28;20232;-70
2023/12/12 06:56:14;;;;;;;1.55;1.10;;;7.80;99.90;;;;;;4995641;28;20225;-71
2023/12/12 06:58:42;;;;;;;2.47;1.52;;;7.70;99.90;;;;;;4999071;28;20233;-73
2023/12/12 07:01:10;;;;;;;4.25;1.50;;;7.60;99.90;;;;;;4999248;28;20205;-71
2023/12/12 07:03:38;;;;;;;3.58;1.83;;;7.40;99.90;;;;;;4998898;28;20220;-74
2023/12/12 07:06:09;;;;;;;2.47;1.85;;;7.20;99.90;;;;;;4995121;28;20201;-73
2023/12/12 07:08:37;;;;;;;2.08;1.60;;;7.10;99.90;;;;;;4998821;28;20712;-74
2023/12/12 07:11:05;;;;;;;4.63;2.00;;;7.00;99.90;;;;;;4998457;28;20236;-70
2023/12/12 07:13:34;;;;;;;3.83;2.05;;;6.80;99.90;;;;;;4999332;28;20279;-69
2023/12/12 07:16:03;;;;;;;3.35;2.15;;;6.80;99.90;;;;;;4996752;28;20458;-71
2023/12/12 07:18:31;;;;;;;4.38;2.10;;;6.70;99.90;;;;;;4996596;28;20929;-67
2023/12/12 07:20:59;;;;;;;3.05;1.85;;;6.70;99.90;;;;;;4996407;28;20213;-67
2023/12/12 07:23:27;;;;;;;2.33;1.50;;;6.60;99.90;;;;;;4998637;28;20220;-69
2023/12/12 07:25:55;;;;;;;2.22;1.60;;;6.60;99.90;;;;;;4996128;28;20224;-69
2023/12/12 07:28:24;;;;;;;4.30;2.45;;;6.60;99.90;;;;;;4997013;28;20312;-72
2023/12/12 07:30:54;;;;;;;3.20;1.65;;;6.60;99.90;;;;;;4996685;28;20279;-72
2023/12/12 07:33:22;;;;;;;6.03;2.45;;;6.50;99.90;;;;;;4996753;28;20240;-73
2023/12/12 07:35:50;;;;;;;14.32;3.55;;;6.50;99.90;;;;;;4997330;28;20289;-72
2023/12/12 07:38:18;;;;;;;2.63;2.17;;;6.50;99.90;;;;;;4996228;28;20229;-70
2023/12/12 07:40:46;;;;;;;2.33;1.88;;;6.50;99.90;;;;;;4994540;28;20561;-72
2023/12/12 07:43:14;;;;;;;2.08;1.60;;;6.50;99.90;;;;;;4997700;28;20213;-72
2023/12/12 07:45:42;;;;;;;3.95;2.40;;;6.50;99.90;;;;;;4998805;28;20692;-70
2023/12/12 07:48:11;;;;;;;4.18;1.83;;;6.60;99.90;;;;;;4994323;28;20273;-70
2023/12/12 07:50:40;;;;;;;3.72;2.20;;;6.60;99.90;;;;;;4998824;28;20715;-71
2023/12/12 07:53:08;;;;;;;3.88;2.00;;;6.70;99.90;;;;;;4998404;28;20213;-71
2023/12/12 07:55:36;;;;;;;4.88;2.17;;;6.80;99.90;;;;;;4998178;28;20692;-72
2023/12/12 07:58:04;;;;;;;6.53;2.72;;;6.90;99.90;;;;;;4992941;28;20648;-70
2023/12/12 08:00:32;;;;;;;3.40;1.85;;;7.00;99.90;;;;;;4998901;28;20290;-71
2023/12/12 08:03:00;;;;;;;4.60;1.55;;;7.00;99.90;;;;;;4997308;28;20209;-70
2023/12/12 08:05:29;;;;;;;4.65;2.15;;;7.00;99.90;;;;;;4998152;28;20217;-71
2023/12/12 08:08:01;;;;;;;3.20;1.98;;;7.00;99.90;;;;;;4995197;28;20245;-71
2023/12/12 08:10:30;;;;;;;4.65;1.95;;;7.00;99.90;;;;;;4998893;28;20291;-71
2023/12/12 08:12:58;;;;;;;4.78;2.05;;;6.90;99.90;;;;;;4995757;28;20213;-70
2023/12/12 08:15:26;;;;;;;6.30;2.53;;;6.90;99.90;;;;;;4998829;28;20583;-73
2023/12/12 08:17:54;;;;;;;3.08;2.08;;;6.90;99.90;;;;;;4999255;28;20723;-70
2023/12/12 08:20:22;;;;;;;1.90;1.70;;;6.90;99.90;;;;;;5001566;28;20210;-70
2023/12/12 08:22:51;;;;;;;7.47;2.65;;;7.00;99.90;;;;;;5004252;28;20700;-70
2023/12/12 08:25:21;;;;;;;3.13;2.05;;;7.10;99.90;;;;;;5003075;28;20225;-71
2023/12/12 08:27:49;;;;;;;4.63;2.65;;;7.00;99.90;;;;;;5000672;28;20229;-71
2023/12/12 08:30:17;;;;;;;3.08;1.95;;;7.10;99.90;;;;;;5000288;28;20719;-71
2023/12/12 08:32:46;;;;;;;7.97;2.13;;;7.00;99.90;;;;;;5000604;28;20649;-71
2023/12/12 08:35:14;;;;;;;3.40;2.10;;;7.10;99.90;;;;;;5002106;28;20214;-70
2023/12/12 08:37:42;;;;;;;4.47;2.10;;;7.10;99.90;;;;;;4996092;28;20209;-71
2023/12/12 08:40:12;;;;;;;5.82;2.40;;;7.20;99.90;;;;;;5002181;28;20222;-70
2023/12/12 08:42:40;;;;;;;2.75;1.67;;;7.30;99.90;;;;;;5005252;28;20206;-70
2023/12/12 08:45:09;;;;;;;3.85;2.25;;;7.30;99.90;;;;;;5005890;28;20202;-70
2023/12/12 08:47:37;;;;;;;5.97;2.13;;;7.40;99.90;;;;;;4999536;28;20729;-71
2023/12/12 08:50:09;;;;;;;4.82;2.58;;;7.50;99.90;;;;;;5005492;28;20588;-70
2023/12/12 08:52:37;;;;;;;5.75;2.83;;;7.50;99.90;;;;;;5001994;28;20206;-70
2023/12/12 08:55:09;;;;;;;8.60;3.10;;;7.60;99.90;;;;;;5003655;28;20626;-70
2023/12/12 08:57:39;;;;;;;6.13;2.83;;;7.60;99.90;;;;;;5006789;28;20313;-71
2023/12/12 09:00:10;;;;;;;4.55;3.22;;;7.60;99.90;;;;;;5003103;28;20331;-71
2023/12/12 09:02:38;;;;;;;5.45;3.75;;;7.70;99.90;;;;;;5005638;28;20798;-71
2023/12/12 09:05:08;;;;;;;10.77;3.45;;;7.70;99.90;;;;;;5006853;28;20209;-70
2023/12/12 09:07:36;;;;;;;3.35;2.40;;;7.80;99.90;;;;;;5003096;28;20241;-70
2023/12/12 09:10:06;;;;;;;5.45;2.92;;;7.80;99.90;;;;;;5004320;28;20220;-70
2023/12/12 09:12:34;;;;;;;3.10;2.45;;;7.80;99.90;;;;;;5002744;28;20205;-72
2023/12/12 09:15:06;;;;;;;4.50;2.53;;;7.90;99.90;;;;;;5005231;28;20206;-71
2023/12/12 09:17:34;;;;;;;6.53;2.35;;;7.90;99.90;;;;;;5008873;28;20649;-71
2023/12/12 09:20:03;;;;;;;8.35;2.72;;;8.00;99.90;;;;;;5004367;28;20261;-68
2023/12/12 09:22:31;;;;;;;4.72;3.00;;;8.00;99.90;;;;;;5011866;28;20695;-73
2023/12/12 09:25:00;;;;;;;3.92;2.72;;;8.00;99.90;;;;;;5013719;28;20634;-71
2023/12/12 09:27:28;;;;;;;5.10;2.90;;;7.90;99.90;;;;;;5008340;28;20717;-72
2023/12/12 09:29:56;;;;;;;5.00;2.60;;;7.80;99.90;;;;;;5003699;28;20201;-71
2023/12/12 09:32:25;;;;;;;3.67;2.05;;;7.90;99.90;;;;;;5001633;28;20637;-73
2023/12/12 09:34:53;;;;;;;5.40;2.08;;;8.00;99.90;;;;;;5005096;28;20264;-71
2023/12/12 09:37:23;;;;;;;7.88;3.55;;;7.90;99.90;;;;;;5007464;28;20225;-72
2023/12/12 09:39:51;;;;;;;5.20;2.10;;;7.90;99.90;;;;;;5006265;28;20576;-71
2023/12/12 09:42:24;;;;;;;3.75;2.10;;;8.00;99.90;;;;;;5004679;28;20580;-70
2023/12/12 09:44:58;;;;;;;4.50;2.05;;;8.00;99.90;;;;;;5008015;28;20208;-72
2023/12/12 09:47:28;;;;;;;4.53;2.38;;;8.00;99.90;;;;;;5003874;28;20256;-71
2023/12/12 09:49:59;;;;;;;5.72;2.15;;;8.10;99.90;;;;;;5007094;28;20281;-70
2023/12/12 09:52:29;;;;;;;7.53;3.00;;;8.10;99.90;;;;;;5004891;28;20273;-71
2023/12/12 09:54:59;;;;;;;7.28;3.08;;;8.20;99.90;;;;;;5010141;28;20201;-71
2023/12/12 09:57:28;;;;;;;3.30;2.20;;;8.30;99.90;;;;;;5012607;28;20739;-73
2023/12/12 09:59:58;;;;;;;7.53;3.33;;;8.40;99.90;;;;;;5020175;28;20255;-70
2023/12/12 10:02:33;;;;;;;4.35;2.05;;;8.50;99.90;;;;;;5011066;28;20657;-70
2023/12/12 10:05:03;;;;;;;7.40;2.55;;;8.50;99.90;;;;;;4998519;28;20694;-70
2023/12/12 10:07:33;;;;;;;5.55;2.30;;;8.40;99.90;;;;;;5005001;28;20245;-72
2023/12/12 10:10:07;;;;;;;5.15;2.95;;;8.40;99.90;;;;;;5002786;28;20201;-70
2023/12/12 10:12:35;;;;;;;4.53;2.00;;;8.40;99.90;;;;;;5004579;28;20222;-72
2023/12/12 10:15:04;;;;;;;6.70;3.15;;;8.40;99.90;;;;;;5006229;28;20205;-70
2023/12/12 10:17:38;;;;;;;8.07;2.83;;;8.40;99.90;;;;;;4998670;28;20234;-70
2023/12/12 10:20:07;;;;;;;3.65;2.42;;;8.50;99.90;;;;;;5003950;28;20214;-74
2023/12/12 10:22:35;;;;;;;5.00;1.90;;;8.60;99.90;;;;;;5001526;28;20642;-73
2023/12/12 10:25:11;;;;;;;6.50;2.65;;;8.60;99.90;;;;;;5005816;28;20272;-70
2023/12/12 10:27:42;;;;;;;4.57;2.00;;;8.60;99.90;;;;;;5005255;28;20236;-70
2023/12/12 10:30:12;;;;;;;7.45;2.47;;;8.80;99.90;;;;;;5003999;28;20201;-71
2023/12/12 10:32:43;;;;;;;7.40;1.42;;;8.80;99.90;;;;;;5008505;28;20316;-73
2023/12/12 10:35:11;;;;;;;5.95;3.80;;;8.80;99.90;;;;;;5003012;28;20210;-70
2023/12/12 10:37:39;;;;;;;3.20;2.60;;;8.90;99.90;;;;;;5002289;28;20229;-71
2023/12/12 10:40:15;;;;;;;6.40;2.20;;;8.90;99.90;;;;;;5003785;28;20229;-71
2023/12/12 10:42:43;;;;;;;4.80;2.63;;;9.00;99.90;;;;;;5008701;28;20201;-70
2023/12/12 10:45:13;;;;;;;8.10;2.78;;;8.90;99.90;;;;;;5000013;28;20214;-71
2023/12/12 10:47:45;;;;;;;8.85;3.38;;;8.90;99.90;;;;;;4997579;28;20229;-70
2023/12/12 10:50:15;;;;;;;3.00;2.70;;;8.90;99.90;;;;;;5005583;28;20202;-70
2023/12/12 10:52:45;;;;;;;5.57;3.22;;;8.90;99.90;;;;;;5003209;28;20758;-70
2023/12/12 10:55:14;;;;;;;3.28;2.42;;;8.90;99.90;;;;;;5007235;28;20210;-70
2023/12/12 10:57:43;;;;;;;6.47;2.75;;;8.80;99.90;;;;;;4999604;28;20225;-70
2023/12/12 11:00:12;;;;;;;4.05;3.05;;;8.80;99.90;;;;;;5000711;28;20219;-70
2023/12/12 11:02:48;;;;;;;10.40;3.85;;;8.70;99.90;;;;;;4999387;28;20197;-71
2023/12/12 11:05:17;;;;;;;4.90;3.38;;;8.70;99.90;;;;;;5005704;28;20232;-71
2023/12/12 11:07:46;;;;;;;10.63;4.32;;;8.70;99.90;;;;;;5001743;28;20311;-70
2023/12/12 11:10:16;;;;;;;7.85;3.47;;;8.70;99.90;;;;;;5006894;28;20201;-71
2023/12/12 11:12:49;;;;;;;6.93;3.78;;;8.70;99.90;;;;;;4999747;28;20255;-71
2023/12/12 11:15:19;;;;;;;5.88;3.38;;;8.70;99.90;;;;;;4999644;28;20285;-71
2023/12/12 11:17:50;;;;;;;8.63;3.95;;;8.60;99.90;;;;;;5001388;28;20241;-70
2023/12/12 11:20:21;;;;;;;7.55;3.22;;;8.60;99.90;;;;;;4999552;28;20689;-72
2023/12/12 11:22:52;;;;;;;10.35;4.30;;;8.60;99.90;;;;;;5003076;28;20193;-71
2023/12/12 11:25:22;;;;;;;9.75;4.55;;;8.60;99.90;;;;;;5000685;28;20232;-72
2023/12/12 11:27:53;;;;;;;6.20;4.13;;;8.60;99.90;;;;;;4997116;28;20229;-72
2023/12/12 11:30:30;;;;;;;8.35;4.28;;;8.50;99.90;;;;;;4998028;28;20615;-73
2023/12/12 11:33:00;;;;;;;14.07;5.85;;;8.50;99.90;;;;;;4996757;28;20252;-70
2023/12/12 11:35:30;;;;;;;8.55;3.45;;;8.50;99.90;;;;;;4995913;28;20598;-73
2023/12/12 11:38:00;;;;;;;7.03;4.10;;;8.40;99.90;;;;;;4998997;28;20314;-72
2023/12/12 11:40:28;;;;;;;9.65;4.60;;;8.30;99.90;;;;;;4996059;28;20580;-72
2023/12/12 11:43:01;;;;;;;11.75;4.60;;;8.20;99.90;;;;;;4999369;28;20216;-74
2023/12/12 11:45:31;;;;;;;7.63;4.40;;;8.20;99.90;;;;;;4993320;28;20363;-71
2023/12/12 11:48:02;;;;;;;9.13;3.92;;;8.10;99.90;;;;;;4997529;28;20237;-71
2023/12/12 11:50:30;;;;;;;6.63;4.25;;;8.10;99.90;;;;;;4997843;28;20719;-71
2023/12/12 11:53:01;;;;;;;6.45;4.60;;;8.20;99.90;;;;;;4997397;28;20724;-72
2023/12/12 11:55:31;;;;;;;15.48;6.00;;;8.10;99.90;;;;;;4995522;28;20217;-71
2023/12/12 11:58:01;;;;;;;8.23;5.13;;;8.20;99.90;;;;;;4997187;28;20774;-71
2023/12/12 12:00:37;;;;;;;8.25;5.18;;;8.10;99.90;;;;;;4994845;28;20636;-73
2023/12/12 12:03:08;;;;;;;13.68;6.97;;;8.10;99.90;;;;;;4997897;28;20233;-72
2023/12/12 12:05:36;;;;;;;6.10;4.82;;;8.10;99.90;;;;;;4997512;28;20209;-71
2023/12/12 12:08:05;;;;;;;11.90;4.93;;;8.20;99.90;;;;;;4993934;28;20244;-72
2023/12/12 12:10:34;;;;;;;9.52;5.18;;;8.10;99.90;;;;;;4998107;28;20247;-71
2023/12/12 12:13:02;;;;;;;11.20;5.10;;;8.10;99.90;;;;;;4996073;28;20229;-75
2023/12/12 12:15:30;;;;;;;7.57;4.82;;;8.20;99.90;;;;;;4997354;28;20240;-73
2023/12/12 12:17:58;;;;;;;7.20;4.53;;;8.20;99.90;;;;;;4997336;28;20249;-72
2023/12/12 12:20:28;;;;;;;9.52;4.88;;;8.10;99.90;;;;;;4995078;28;20769;-74
2023/12/12 12:22:56;;;;;;;12.73;5.57;;;8.20;99.90;;;;;;4997305;28;20208;-73
2023/12/12 12:25:26;;;;;;;8.60;5.40;;;8.10;99.90;;;;;;4995681;28;20332;-74
2023/12/12 12:27:56;;;;;;;6.40;5.70;;;8.10;99.90;;;;;;4996687;28;20610;-71
2023/12/12 12:30:25;;;;;;;6.75;5.20;;;8.10;99.90;;;;;;4996378;28;20605;-74
2023/12/12 12:33:01;;;;;;;10.65;4.68;;;8.00;99.90;;;;;;4995940;28;20232;-73
2023/12/12 12:35:32;;;;;;;8.43;5.22;;;8.00;99.90;;;;;;4997708;28;20716;-70
2023/12/12 12:38:00;;;;;;;10.50;6.25;;;8.00;99.90;;;;;;4997266;28;20771;-70
2023/12/12 12:40:36;;;;;;;11.02;5.30;;;8.10;99.90;;;;;;4995578;28;20264;-71
2023/12/12 12:43:14;;;;;;;7.13;5.30;;;8.00;99.90;;;;;;4995860;28;20214;-72
2023/12/12 12:45:42;;;;;;;6.57;4.30;;;8.00;99.90;;;;;;4995740;28;20216;-71
2023/12/12 12:48:10;;;;;;;10.13;4.85;;;8.00;99.90;;;;;;4994627;28;20229;-73
2023/12/12 12:50:41;;;;;;;7.75;4.15;;;8.00;99.90;;;;;;4996703;28;20219;-72
2023/12/12 12:53:09;;;;;;;6.28;4.68;;;8.10;99.90;;;;;;4997791;28;20300;-74
2023/12/12 12:55:38;;;;;;;5.55;4.55;;;8.00;99.90;;;;;;4996206;28;20205;-72
2023/12/12 12:58:06;;;;;;;6.90;4.90;;;8.00;99.90;;;;;;4996148;28;20304;-72
2023/12/12 13:00:34;;;;;;;6.50;4.90;;;8.10;99.90;;;;;;4995102;28;20205;-74
2023/12/12 13:03:03;;;;;;;9.85;5.00;;;8.10;99.90;;;;;;4997185;28;20267;-72